Historique des mesures à Cassis (13260), France
Quotidien Résumé Fevrier 10, 2018 Unités:  Métrique    US   Métrique/US
« Précédent (Jour)
Suivant (Jour) »
Quotidien Hebdomadaire Mensuel Annuel Période au choix
  Maximum: Minimum: Moyenne:
Température: -17.8 °C -15.1 °C -14.1 °C
Point de rosée: -17.8 °C -19.1 °C -18.2 °C
Humidité: Humidity % 45 % 56 %
Vitesse du vent: 0 km/h 0 km/h 16.9 km/h
Rafales: 0 km/h - -
Vent:- - SW
Pression: 0 hPa 34107.2 hPa -
Précipitations: 0 mm    
Historical Graphs
 
 
Mesures pour : Fevrier 10, 2018
Heure Temperature Point de rosée Pression Vent Vitesse du vent Rafales Humidité Pluie (par heure) Conditions
-17.8 °C -17.8 °C 0 hPa Calm     Humidity % 0 mm SoftwareType W/m2
00:12 -14.4 °C -18 °C 34178.3 hPa West 4.2 km/h 10.3 km/h 63 % 0 mm open2300-1.11 W/m2
01:12 -14.6 °C -18.1 °C 34154.6 hPa WNW 13.2 km/h 20.3 km/h 64 % 0 mm open2300-1.11 W/m2
02:12 -14.8 °C -18 °C 34130.9 hPa WNW 27.2 km/h 27.2 km/h 66 % 0 mm open2300-1.11 W/m2
03:12 -14.8 °C -17.9 °C 34120.7 hPa West 7.6 km/h 27.2 km/h 67 % 0 mm open2300-1.11 W/m2
04:12 -14.8 °C -17.8 °C 34107.2 hPa NNW 33.2 km/h 33.2 km/h 68 % 0 mm open2300-1.11 W/m2
05:12 -14.8 °C -17.7 °C 34107.2 hPa NNW 11.6 km/h 14.5 km/h 69 % 0 mm open2300-1.11 W/m2
06:12 -14.9 °C -17.8 °C 34107.2 hPa Calm   4.7 km/h 69 % 0 mm open2300-1.11 W/m2
07:12 -15.1 °C -17.9 °C 34120.7 hPa NNE 6.9 km/h 6.9 km/h 69 % 0 mm open2300-1.11 W/m2
08:12 -14.9 °C -18.1 °C 34107.2 hPa NNW 8 km/h 21.6 km/h 67 % 0 mm open2300-1.11 W/m2
09:12 -14.4 °C -18.2 °C 34130.9 hPa North 12.7 km/h 12.7 km/h 62 % 0 mm open2300-1.11 W/m2
10:12 -13.9 °C -18.4 °C 34154.6 hPa North 6.4 km/h 15.6 km/h 57 % 0 mm open2300-1.11 W/m2
11:12 -13.1 °C -18.3 °C 34178.3 hPa West 23.8 km/h 23.8 km/h 52 % 0 mm open2300-1.11 W/m2
12:12 -12.3 °C -17.9 °C 34164.7 hPa WNW 26.7 km/h 26.7 km/h 49 % 0 mm open2300-1.11 W/m2
13:12 -11.7 °C -17.6 °C 34164.7 hPa Calm   9.8 km/h 48 % 0 mm open2300-1.11 W/m2
14:12 -11.3 °C -17.8 °C 34144.4 hPa WNW 30.7 km/h 30.7 km/h 45 % 0 mm open2300-1.11 W/m2
15:12 -11.6 °C -17.6 °C 34154.6 hPa WNW 33.6 km/h 40.7 km/h 47 % 0 mm open2300-1.11 W/m2
16:12 -11.9 °C -17.9 °C 34154.6 hPa WNW 23 km/h 37 km/h 47 % 0 mm open2300-1.11 W/m2
17:12 -12.7 °C -18.2 °C 34154.6 hPa NNE 13.2 km/h 50.5 km/h 50 % 0 mm open2300-1.11 W/m2
18:12 -13.7 °C -18.5 °C 34178.3 hPa NNW 14.5 km/h 14.5 km/h 54 % 0 mm open2300-1.11 W/m2
19:12 -14.4 °C -18.8 °C 34188.4 hPa WNW 38.8 km/h 38.8 km/h 57 % 0 mm open2300-1.11 W/m2
20:12 -14.7 °C -19.1 °C 34178.3 hPa WNW 23 km/h 27.7 km/h 57 % 0 mm open2300-1.11 W/m2
21:12 -14.9 °C -18.9 °C 34188.4 hPa WNW 27.2 km/h 51 km/h 60 % 0 mm open2300-1.11 W/m2
22:12 -15.1 °C -18.9 °C 34212.1 hPa West 29.5 km/h 31.4 km/h 61 % 0 mm open2300-1.11 W/m2
23:12 -14.9 °C -18.8 °C 34198.6 hPa ENE 8.9 km/h 12.2 km/h 61 % 0 mm open2300-1.11 W/m2
Observations météo à CASSIS
WU-History script by Weather Underground - 1 mb